sensor_id;sensor_type;location;lat;lon;timestamp;temperature;humidity
33863;DHT22;20158;51.436;-2.742;2024-01-30T00:00:17;14.70;70.20
33863;DHT22;20158;51.436;-2.742;2024-01-30T00:02:44;14.70;70.30
33863;DHT22;20158;51.436;-2.742;2024-01-30T00:05:12;14.70;70.30
33863;DHT22;20158;51.436;-2.742;2024-01-30T00:07:39;14.70;70.40
33863;DHT22;20158;51.436;-2.742;2024-01-30T00:10:09;14.70;70.40
33863;DHT22;20158;51.436;-2.742;2024-01-30T00:12:39;14.70;70.40
33863;DHT22;20158;51.436;-2.742;2024-01-30T00:15:05;14.70;70.40
33863;DHT22;20158;51.436;-2.742;2024-01-30T00:17:35;14.70;70.40
33863;DHT22;20158;51.436;-2.742;2024-01-30T00:20:03;14.60;70.20
33863;DHT22;20158;51.436;-2.742;2024-01-30T00:22:31;14.60;70.20
33863;DHT22;20158;51.436;-2.742;2024-01-30T00:24:59;14.60;70.30
33863;DHT22;20158;51.436;-2.742;2024-01-30T00:27:29;14.60;70.30
33863;DHT22;20158;51.436;-2.742;2024-01-30T00:29:58;14.60;70.30
33863;DHT22;20158;51.436;-2.742;2024-01-30T00:32:27;14.50;70.10
33863;DHT22;20158;51.436;-2.742;2024-01-30T00:34:53;14.50;70.20
33863;DHT22;20158;51.436;-2.742;2024-01-30T00:37:20;14.50;70.20
33863;DHT22;20158;51.436;-2.742;2024-01-30T00:39:46;14.40;70.00
33863;DHT22;20158;51.436;-2.742;2024-01-30T00:42:12;14.50;70.30
33863;DHT22;20158;51.436;-2.742;2024-01-30T00:44:38;14.40;70.00
33863;DHT22;20158;51.436;-2.742;2024-01-30T00:47:05;14.40;70.00
33863;DHT22;20158;51.436;-2.742;2024-01-30T00:49:34;14.40;70.10
33863;DHT22;20158;51.436;-2.742;2024-01-30T00:52:01;14.40;70.10
33863;DHT22;20158;51.436;-2.742;2024-01-30T00:54:29;14.30;70.00
33863;DHT22;20158;51.436;-2.742;2024-01-30T00:57:00;14.30;69.90
33863;DHT22;20158;51.436;-2.742;2024-01-30T00:59:26;14.30;70.00
33863;DHT22;20158;51.436;-2.742;2024-01-30T01:01:56;14.20;69.80
33863;DHT22;20158;51.436;-2.742;2024-01-30T01:04:22;14.20;69.80
33863;DHT22;20158;51.436;-2.742;2024-01-30T01:06:49;14.20;69.80
33863;DHT22;20158;51.436;-2.742;2024-01-30T01:09:15;14.10;69.60
33863;DHT22;20158;51.436;-2.742;2024-01-30T01:11:43;14.10;69.60
33863;DHT22;20158;51.436;-2.742;2024-01-30T01:14:10;14.10;69.70
33863;DHT22;20158;51.436;-2.742;2024-01-30T01:16:37;14.10;69.60
33863;DHT22;20158;51.436;-2.742;2024-01-30T01:19:03;14.00;69.50
33863;DHT22;20158;51.436;-2.742;2024-01-30T01:21:30;14.00;69.40
33863;DHT22;20158;51.436;-2.742;2024-01-30T01:23:57;14.00;69.40
33863;DHT22;20158;51.436;-2.742;2024-01-30T01:26:23;13.90;69.30
33863;DHT22;20158;51.436;-2.742;2024-01-30T01:28:50;13.90;69.30
33863;DHT22;20158;51.436;-2.742;2024-01-30T01:31:16;13.90;69.30
33863;DHT22;20158;51.436;-2.742;2024-01-30T01:33:44;13.90;69.30
33863;DHT22;20158;51.436;-2.742;2024-01-30T01:36:14;13.80;69.10
33863;DHT22;20158;51.436;-2.742;2024-01-30T01:38:40;13.70;69.00
33863;DHT22;20158;51.436;-2.742;2024-01-30T01:41:07;13.70;69.00
33863;DHT22;20158;51.436;-2.742;2024-01-30T01:43:38;13.60;68.90
33863;DHT22;20158;51.436;-2.742;2024-01-30T01:46:07;13.60;68.90
33863;DHT22;20158;51.436;-2.742;2024-01-30T01:48:34;13.60;68.90
33863;DHT22;20158;51.436;-2.742;2024-01-30T01:51:01;13.60;68.90
33863;DHT22;20158;51.436;-2.742;2024-01-30T01:53:28;13.50;68.70
33863;DHT22;20158;51.436;-2.742;2024-01-30T01:55:55;13.50;68.70
33863;DHT22;20158;51.436;-2.742;2024-01-30T01:58:21;13.50;68.70
33863;DHT22;20158;51.436;-2.742;2024-01-30T02:00:48;13.40;68.60
33863;DHT22;20158;51.436;-2.742;2024-01-30T02:03:18;13.40;68.60
33863;DHT22;20158;51.436;-2.742;2024-01-30T02:05:47;13.40;68.60
33863;DHT22;20158;51.436;-2.742;2024-01-30T02:08:13;13.40;68.60
33863;DHT22;20158;51.436;-2.742;2024-01-30T02:10:39;13.30;68.50
33863;DHT22;20158;51.436;-2.742;2024-01-30T02:13:05;13.30;68.50
33863;DHT22;20158;51.436;-2.742;2024-01-30T02:15:32;13.30;68.50
33863;DHT22;20158;51.436;-2.742;2024-01-30T02:17:58;13.20;68.90
33863;DHT22;20158;51.436;-2.742;2024-01-30T02:20:25;13.20;68.30
33863;DHT22;20158;51.436;-2.742;2024-01-30T02:22:54;13.20;68.40
33863;DHT22;20158;51.436;-2.742;2024-01-30T02:25:33;13.20;68.40
33863;DHT22;20158;51.436;-2.742;2024-01-30T02:28:00;13.20;68.40
33863;DHT22;20158;51.436;-2.742;2024-01-30T02:30:26;13.10;68.20
33863;DHT22;20158;51.436;-2.742;2024-01-30T02:32:52;13.10;68.30
33863;DHT22;20158;51.436;-2.742;2024-01-30T02:35:18;13.00;68.10
33863;DHT22;20158;51.436;-2.742;2024-01-30T02:37:44;13.00;68.10
33863;DHT22;20158;51.436;-2.742;2024-01-30T02:40:11;13.00;68.10
33863;DHT22;20158;51.436;-2.742;2024-01-30T02:42:40;12.90;68.00
33863;DHT22;20158;51.436;-2.742;2024-01-30T02:45:08;12.90;68.00
33863;DHT22;20158;51.436;-2.742;2024-01-30T02:47:35;12.90;68.00
33863;DHT22;20158;51.436;-2.742;2024-01-30T02:50:03;12.90;68.00
33863;DHT22;20158;51.436;-2.742;2024-01-30T02:52:36;12.80;67.80
33863;DHT22;20158;51.436;-2.742;2024-01-30T02:55:02;12.80;67.90
33863;DHT22;20158;51.436;-2.742;2024-01-30T02:57:29;12.80;67.90
33863;DHT22;20158;51.436;-2.742;2024-01-30T02:59:55;12.80;67.90
33863;DHT22;20158;51.436;-2.742;2024-01-30T03:02:21;12.70;67.70
33863;DHT22;20158;51.436;-2.742;2024-01-30T03:04:48;12.70;67.70
33863;DHT22;20158;51.436;-2.742;2024-01-30T03:07:14;12.70;67.80
33863;DHT22;20158;51.436;-2.742;2024-01-30T03:09:41;12.70;67.80
33863;DHT22;20158;51.436;-2.742;2024-01-30T03:12:09;12.70;68.30
33863;DHT22;20158;51.436;-2.742;2024-01-30T03:14:36;12.60;67.60
33863;DHT22;20158;51.436;-2.742;2024-01-30T03:17:04;12.60;67.60
33863;DHT22;20158;51.436;-2.742;2024-01-30T03:19:30;12.60;67.60
33863;DHT22;20158;51.436;-2.742;2024-01-30T03:21:56;12.60;67.60
33863;DHT22;20158;51.436;-2.742;2024-01-30T03:24:22;12.60;67.60
33863;DHT22;20158;51.436;-2.742;2024-01-30T03:26:49;12.50;67.40
33863;DHT22;20158;51.436;-2.742;2024-01-30T03:29:15;12.50;67.40
33863;DHT22;20158;51.436;-2.742;2024-01-30T03:31:42;12.50;67.40
33863;DHT22;20158;51.436;-2.742;2024-01-30T03:34:08;12.50;67.40
33863;DHT22;20158;51.436;-2.742;2024-01-30T03:36:35;12.50;67.40
33863;DHT22;20158;51.436;-2.742;2024-01-30T03:39:02;12.40;67.20
33863;DHT22;20158;51.436;-2.742;2024-01-30T03:41:28;12.40;67.20
33863;DHT22;20158;51.436;-2.742;2024-01-30T03:43:54;12.40;67.20
33863;DHT22;20158;51.436;-2.742;2024-01-30T03:46:21;12.40;67.20
33863;DHT22;20158;51.436;-2.742;2024-01-30T03:48:47;12.40;67.20
33863;DHT22;20158;51.436;-2.742;2024-01-30T03:51:14;12.40;67.20
33863;DHT22;20158;51.436;-2.742;2024-01-30T03:53:42;12.40;67.20
33863;DHT22;20158;51.436;-2.742;2024-01-30T03:56:08;12.40;67.20
33863;DHT22;20158;51.436;-2.742;2024-01-30T03:58:34;12.30;66.90
33863;DHT22;20158;51.436;-2.742;2024-01-30T04:01:01;12.40;67.10
33863;DHT22;20158;51.436;-2.742;2024-01-30T04:03:27;12.30;66.90
33863;DHT22;20158;51.436;-2.742;2024-01-30T04:05:53;12.30;66.90
33863;DHT22;20158;51.436;-2.742;2024-01-30T04:08:19;12.30;66.90
33863;DHT22;20158;51.436;-2.742;2024-01-30T04:10:46;12.30;66.90
33863;DHT22;20158;51.436;-2.742;2024-01-30T04:13:13;12.30;66.90
33863;DHT22;20158;51.436;-2.742;2024-01-30T04:15:39;12.20;66.70
33863;DHT22;20158;51.436;-2.742;2024-01-30T04:18:05;12.20;66.70
33863;DHT22;20158;51.436;-2.742;2024-01-30T04:20:32;12.20;66.70
33863;DHT22;20158;51.436;-2.742;2024-01-30T04:22:58;12.20;66.70
33863;DHT22;20158;51.436;-2.742;2024-01-30T04:25:25;12.20;66.70
33863;DHT22;20158;51.436;-2.742;2024-01-30T04:27:51;12.20;66.70
33863;DHT22;20158;51.436;-2.742;2024-01-30T04:30:17;12.20;66.70
33863;DHT22;20158;51.436;-2.742;2024-01-30T04:32:43;12.10;66.60
33863;DHT22;20158;51.436;-2.742;2024-01-30T04:35:10;12.10;67.00
33863;DHT22;20158;51.436;-2.742;2024-01-30T04:37:36;12.10;66.50
33863;DHT22;20158;51.436;-2.742;2024-01-30T04:40:03;12.10;66.50
33863;DHT22;20158;51.436;-2.742;2024-01-30T04:42:30;12.10;66.50
33863;DHT22;20158;51.436;-2.742;2024-01-30T04:44:57;12.10;66.50
33863;DHT22;20158;51.436;-2.742;2024-01-30T04:47:23;12.10;66.60
33863;DHT22;20158;51.436;-2.742;2024-01-30T04:49:49;12.10;66.70
33863;DHT22;20158;51.436;-2.742;2024-01-30T04:52:16;12.00;66.40
33863;DHT22;20158;51.436;-2.742;2024-01-30T04:54:42;12.00;66.40
33863;DHT22;20158;51.436;-2.742;2024-01-30T04:57:11;12.00;66.40
33863;DHT22;20158;51.436;-2.742;2024-01-30T04:59:40;12.00;66.40
33863;DHT22;20158;51.436;-2.742;2024-01-30T05:02:06;12.00;66.40
33863;DHT22;20158;51.436;-2.742;2024-01-30T05:04:33;11.90;66.20
33863;DHT22;20158;51.436;-2.742;2024-01-30T05:07:01;11.90;66.20
33863;DHT22;20158;51.436;-2.742;2024-01-30T05:09:27;11.90;66.20
33863;DHT22;20158;51.436;-2.742;2024-01-30T05:11:54;11.90;66.20
33863;DHT22;20158;51.436;-2.742;2024-01-30T05:14:20;11.90;66.20
33863;DHT22;20158;51.436;-2.742;2024-01-30T05:16:46;11.90;66.20
33863;DHT22;20158;51.436;-2.742;2024-01-30T05:19:13;11.90;66.20
33863;DHT22;20158;51.436;-2.742;2024-01-30T05:21:41;11.90;66.70
33863;DHT22;20158;51.436;-2.742;2024-01-30T05:24:09;11.80;66.00
33863;DHT22;20158;51.436;-2.742;2024-01-30T05:26:36;11.80;66.00
33863;DHT22;20158;51.436;-2.742;2024-01-30T05:29:03;11.80;66.00
33863;DHT22;20158;51.436;-2.742;2024-01-30T05:31:30;11.80;66.00
33863;DHT22;20158;51.436;-2.742;2024-01-30T05:33:56;11.80;66.00
33863;DHT22;20158;51.436;-2.742;2024-01-30T05:36:22;11.80;66.00
33863;DHT22;20158;51.436;-2.742;2024-01-30T05:38:48;11.80;66.00
33863;DHT22;20158;51.436;-2.742;2024-01-30T05:41:15;11.80;66.00
33863;DHT22;20158;51.436;-2.742;2024-01-30T05:43:42;11.80;66.00
33863;DHT22;20158;51.436;-2.742;2024-01-30T05:46:08;11.80;66.00
33863;DHT22;20158;51.436;-2.742;2024-01-30T05:48:34;11.80;66.00
33863;DHT22;20158;51.436;-2.742;2024-01-30T05:51:02;11.80;66.00
33863;DHT22;20158;51.436;-2.742;2024-01-30T05:53:29;11.80;66.00
33863;DHT22;20158;51.436;-2.742;2024-01-30T05:55:55;11.80;66.00
33863;DHT22;20158;51.436;-2.742;2024-01-30T05:58:22;11.80;66.00
33863;DHT22;20158;51.436;-2.742;2024-01-30T06:00:48;11.70;65.80
33863;DHT22;20158;51.436;-2.742;2024-01-30T06:03:14;11.80;66.00
33863;DHT22;20158;51.436;-2.742;2024-01-30T06:05:41;11.70;65.80
33863;DHT22;20158;51.436;-2.742;2024-01-30T06:08:07;11.70;66.00
33863;DHT22;20158;51.436;-2.742;2024-01-30T06:10:33;11.70;65.80
33863;DHT22;20158;51.436;-2.742;2024-01-30T06:12:59;11.70;65.80
33863;DHT22;20158;51.436;-2.742;2024-01-30T06:15:25;11.70;65.80
33863;DHT22;20158;51.436;-2.742;2024-01-30T06:17:52;11.70;65.80
33863;DHT22;20158;51.436;-2.742;2024-01-30T06:20:17;11.70;65.80
33863;DHT22;20158;51.436;-2.742;2024-01-30T06:22:43;11.70;65.80
33863;DHT22;20158;51.436;-2.742;2024-01-30T06:25:09;11.70;65.90
33863;DHT22;20158;51.436;-2.742;2024-01-30T06:27:38;11.70;65.90
33863;DHT22;20158;51.436;-2.742;2024-01-30T06:30:05;11.60;65.70
33863;DHT22;20158;51.436;-2.742;2024-01-30T06:32:31;11.70;65.90
33863;DHT22;20158;51.436;-2.742;2024-01-30T06:35:01;11.60;65.70
33863;DHT22;20158;51.436;-2.742;2024-01-30T06:37:31;11.60;65.70
33863;DHT22;20158;51.436;-2.742;2024-01-30T06:39:57;11.60;65.70
33863;DHT22;20158;51.436;-2.742;2024-01-30T06:42:24;11.60;65.80
33863;DHT22;20158;51.436;-2.742;2024-01-30T06:44:53;11.60;65.80
33863;DHT22;20158;51.436;-2.742;2024-01-30T06:47:20;11.50;65.60
33863;DHT22;20158;51.436;-2.742;2024-01-30T06:49:47;11.60;65.80
33863;DHT22;20158;51.436;-2.742;2024-01-30T06:52:13;11.50;65.70
33863;DHT22;20158;51.436;-2.742;2024-01-30T06:54:40;11.50;65.70
33863;DHT22;20158;51.436;-2.742;2024-01-30T06:57:07;11.50;66.00
33863;DHT22;20158;51.436;-2.742;2024-01-30T06:59:39;11.50;66.20
33863;DHT22;20158;51.436;-2.742;2024-01-30T07:02:14;11.50;66.40
33863;DHT22;20158;51.436;-2.742;2024-01-30T07:04:41;11.50;66.40
33863;DHT22;20158;51.436;-2.742;2024-01-30T07:07:14;11.60;66.60
33863;DHT22;20158;51.436;-2.742;2024-01-30T07:09:41;11.50;66.50
33863;DHT22;20158;51.436;-2.742;2024-01-30T07:12:08;11.60;66.80
33863;DHT22;20158;51.436;-2.742;2024-01-30T07:14:35;11.60;67.10
33863;DHT22;20158;51.436;-2.742;2024-01-30T07:17:02;11.60;67.20
33863;DHT22;20158;51.436;-2.742;2024-01-30T07:19:31;11.60;67.40
33863;DHT22;20158;51.436;-2.742;2024-01-30T07:21:58;11.60;67.60
33863;DHT22;20158;51.436;-2.742;2024-01-30T07:24:25;11.70;68.30
33863;DHT22;20158;51.436;-2.742;2024-01-30T07:26:52;11.70;68.80
33863;DHT22;20158;51.436;-2.742;2024-01-30T07:29:18;11.80;69.30
33863;DHT22;20158;51.436;-2.742;2024-01-30T07:31:45;12.00;69.80
33863;DHT22;20158;51.436;-2.742;2024-01-30T07:34:11;12.10;70.00
33863;DHT22;20158;51.436;-2.742;2024-01-30T07:36:37;12.20;70.20
33863;DHT22;20158;51.436;-2.742;2024-01-30T07:39:03;12.40;70.40
33863;DHT22;20158;51.436;-2.742;2024-01-30T07:41:29;12.60;70.70
33863;DHT22;20158;51.436;-2.742;2024-01-30T07:43:55;12.70;70.70
33863;DHT22;20158;51.436;-2.742;2024-01-30T07:46:22;12.80;70.70
33863;DHT22;20158;51.436;-2.742;2024-01-30T07:48:49;12.90;70.70
33863;DHT22;20158;51.436;-2.742;2024-01-30T07:51:15;13.10;70.90
33863;DHT22;20158;51.436;-2.742;2024-01-30T07:53:41;13.20;71.00
33863;DHT22;20158;51.436;-2.742;2024-01-30T07:56:07;13.30;70.90
33863;DHT22;20158;51.436;-2.742;2024-01-30T07:58:33;13.40;71.00
33863;DHT22;20158;51.436;-2.742;2024-01-30T08:01:00;13.50;71.00
33863;DHT22;20158;51.436;-2.742;2024-01-30T08:03:26;13.60;71.00
33863;DHT22;20158;51.436;-2.742;2024-01-30T08:05:56;13.80;71.20
33863;DHT22;20158;51.436;-2.742;2024-01-30T08:08:21;13.80;71.10
33863;DHT22;20158;51.436;-2.742;2024-01-30T08:10:50;13.90;71.10
33863;DHT22;20158;51.436;-2.742;2024-01-30T08:13:17;14.00;71.10
33863;DHT22;20158;51.436;-2.742;2024-01-30T08:15:43;14.10;71.10
33863;DHT22;20158;51.436;-2.742;2024-01-30T08:18:09;14.20;71.10
33863;DHT22;20158;51.436;-2.742;2024-01-30T08:20:35;14.30;71.10
33863;DHT22;20158;51.436;-2.742;2024-01-30T08:23:01;14.30;70.90
33863;DHT22;20158;51.436;-2.742;2024-01-30T08:25:27;14.40;70.90
33863;DHT22;20158;51.436;-2.742;2024-01-30T08:27:53;14.40;70.80
33863;DHT22;20158;51.436;-2.742;2024-01-30T08:30:27;14.50;70.80
33863;DHT22;20158;51.436;-2.742;2024-01-30T08:32:53;14.60;70.80
33863;DHT22;20158;51.436;-2.742;2024-01-30T08:35:19;14.70;70.80
33863;DHT22;20158;51.436;-2.742;2024-01-30T08:37:45;14.70;70.60
33863;DHT22;20158;51.436;-2.742;2024-01-30T08:40:10;14.70;70.40
33863;DHT22;20158;51.436;-2.742;2024-01-30T08:42:37;14.80;70.50
33863;DHT22;20158;51.436;-2.742;2024-01-30T08:45:04;14.90;70.40
33863;DHT22;20158;51.436;-2.742;2024-01-30T08:47:30;15.00;70.30
33863;DHT22;20158;51.436;-2.742;2024-01-30T08:49:57;15.00;70.10
33863;DHT22;20158;51.436;-2.742;2024-01-30T08:52:23;15.10;70.10
33863;DHT22;20158;51.436;-2.742;2024-01-30T08:54:49;15.10;70.00
33863;DHT22;20158;51.436;-2.742;2024-01-30T08:57:15;15.20;69.90
33863;DHT22;20158;51.436;-2.742;2024-01-30T08:59:42;15.20;69.80
33863;DHT22;20158;51.436;-2.742;2024-01-30T09:02:11;15.20;69.60
33863;DHT22;20158;51.436;-2.742;2024-01-30T09:04:39;15.30;69.70
33863;DHT22;20158;51.436;-2.742;2024-01-30T09:07:05;15.30;69.50
33863;DHT22;20158;51.436;-2.742;2024-01-30T09:09:34;15.40;69.50
33863;DHT22;20158;51.436;-2.742;2024-01-30T09:12:01;15.40;69.30
33863;DHT22;20158;51.436;-2.742;2024-01-30T09:14:32;15.50;69.30
33863;DHT22;20158;51.436;-2.742;2024-01-30T09:16:58;15.50;69.20
33863;DHT22;20158;51.436;-2.742;2024-01-30T09:19:24;15.60;69.20
33863;DHT22;20158;51.436;-2.742;2024-01-30T09:21:51;15.60;69.00
33863;DHT22;20158;51.436;-2.742;2024-01-30T09:24:17;15.70;68.80
33863;DHT22;20158;51.436;-2.742;2024-01-30T09:26:44;15.70;68.40
33863;DHT22;20158;51.436;-2.742;2024-01-30T09:29:10;15.70;68.10
33863;DHT22;20158;51.436;-2.742;2024-01-30T09:31:37;15.70;67.90
33863;DHT22;20158;51.436;-2.742;2024-01-30T09:34:09;15.60;67.70
33863;DHT22;20158;51.436;-2.742;2024-01-30T09:36:36;15.60;67.70
33863;DHT22;20158;51.436;-2.742;2024-01-30T09:39:04;15.50;67.50
33863;DHT22;20158;51.436;-2.742;2024-01-30T09:41:32;15.50;67.60
33863;DHT22;20158;51.436;-2.742;2024-01-30T09:44:01;15.50;67.60
33863;DHT22;20158;51.436;-2.742;2024-01-30T09:46:31;15.40;67.30
33863;DHT22;20158;51.436;-2.742;2024-01-30T09:48:58;15.40;67.30
33863;DHT22;20158;51.436;-2.742;2024-01-30T09:51:29;15.40;67.30
33863;DHT22;20158;51.436;-2.742;2024-01-30T09:53:57;15.40;67.30
33863;DHT22;20158;51.436;-2.742;2024-01-30T09:56:23;15.30;67.10
33863;DHT22;20158;51.436;-2.742;2024-01-30T09:58:50;15.40;67.30
33863;DHT22;20158;51.436;-2.742;2024-01-30T10:01:20;15.40;67.30
33863;DHT22;20158;51.436;-2.742;2024-01-30T10:03:47;15.30;67.00
33863;DHT22;20158;51.436;-2.742;2024-01-30T10:06:16;15.30;67.00
33863;DHT22;20158;51.436;-2.742;2024-01-30T10:08:43;15.30;66.90
33863;DHT22;20158;51.436;-2.742;2024-01-30T10:11:10;15.40;67.00
33863;DHT22;20158;51.436;-2.742;2024-01-30T10:13:38;15.30;66.70
33863;DHT22;20158;51.436;-2.742;2024-01-30T10:16:13;15.30;66.70
33863;DHT22;20158;51.436;-2.742;2024-01-30T10:18:43;15.40;66.80
33863;DHT22;20158;51.436;-2.742;2024-01-30T10:21:09;15.30;66.60
33863;DHT22;20158;51.436;-2.742;2024-01-30T10:23:38;15.30;66.60
33863;DHT22;20158;51.436;-2.742;2024-01-30T10:26:06;15.30;66.50
33863;DHT22;20158;51.436;-2.742;2024-01-30T10:28:33;15.40;66.60
33863;DHT22;20158;51.436;-2.742;2024-01-30T10:31:00;15.30;66.30
33863;DHT22;20158;51.436;-2.742;2024-01-30T10:33:27;15.30;66.30
33863;DHT22;20158;51.436;-2.742;2024-01-30T10:35:59;15.30;66.20
33863;DHT22;20158;51.436;-2.742;2024-01-30T10:38:29;15.30;66.10
33863;DHT22;20158;51.436;-2.742;2024-01-30T10:40:57;15.30;66.20
33863;DHT22;20158;51.436;-2.742;2024-01-30T10:43:32;15.30;66.10
33863;DHT22;20158;51.436;-2.742;2024-01-30T10:46:21;15.30;66.00
33863;DHT22;20158;51.436;-2.742;2024-01-30T10:48:59;15.30;66.00
33863;DHT22;20158;51.436;-2.742;2024-01-30T10:51:27;15.30;65.90
33863;DHT22;20158;51.436;-2.742;2024-01-30T10:53:58;15.30;65.90
33863;DHT22;20158;51.436;-2.742;2024-01-30T10:56:26;15.30;65.90
33863;DHT22;20158;51.436;-2.742;2024-01-30T10:58:54;15.30;65.90
33863;DHT22;20158;51.436;-2.742;2024-01-30T11:01:24;15.40;66.00
33863;DHT22;20158;51.436;-2.742;2024-01-30T11:03:52;15.30;65.70
33863;DHT22;20158;51.436;-2.742;2024-01-30T11:06:23;15.40;65.80
33863;DHT22;20158;51.436;-2.742;2024-01-30T11:09:02;15.40;65.70
33863;DHT22;20158;51.436;-2.742;2024-01-30T11:11:49;15.40;65.50
33863;DHT22;20158;51.436;-2.742;2024-01-30T11:14:24;15.40;65.40
33863;DHT22;20158;51.436;-2.742;2024-01-30T11:16:52;15.40;65.40
33863;DHT22;20158;51.436;-2.742;2024-01-30T11:19:25;15.40;65.30
33863;DHT22;20158;51.436;-2.742;2024-01-30T11:21:55;15.30;65.00
33863;DHT22;20158;51.436;-2.742;2024-01-30T11:24:25;15.30;65.10
33863;DHT22;20158;51.436;-2.742;2024-01-30T11:27:01;15.30;65.10
33863;DHT22;20158;51.436;-2.742;2024-01-30T11:29:29;15.20;64.90
33863;DHT22;20158;51.436;-2.742;2024-01-30T11:31:59;15.10;64.80
33863;DHT22;20158;51.436;-2.742;2024-01-30T11:34:28;15.10;64.80
33863;DHT22;20158;51.436;-2.742;2024-01-30T11:37:01;15.10;64.80
33863;DHT22;20158;51.436;-2.742;2024-01-30T11:39:30;15.10;64.90
33863;DHT22;20158;51.436;-2.742;2024-01-30T11:41:57;15.10;64.90
33863;DHT22;20158;51.436;-2.742;2024-01-30T11:44:24;15.10;64.90
33863;DHT22;20158;51.436;-2.742;2024-01-30T11:46:51;15.10;64.90
33863;DHT22;20158;51.436;-2.742;2024-01-30T11:49:18;15.10;64.80
33863;DHT22;20158;51.436;-2.742;2024-01-30T11:51:46;15.00;64.60
33863;DHT22;20158;51.436;-2.742;2024-01-30T11:54:15;15.10;64.70
33863;DHT22;20158;51.436;-2.742;2024-01-30T11:56:45;15.10;64.70
33863;DHT22;20158;51.436;-2.742;2024-01-30T11:59:11;15.10;64.60
33863;DHT22;20158;51.436;-2.742;2024-01-30T12:01:38;15.10;64.60
33863;DHT22;20158;51.436;-2.742;2024-01-30T12:04:08;15.00;64.30
33863;DHT22;20158;51.436;-2.742;2024-01-30T12:06:38;15.00;64.30
33863;DHT22;20158;51.436;-2.742;2024-01-30T12:09:05;15.00;64.30
33863;DHT22;20158;51.436;-2.742;2024-01-30T12:11:43;15.00;64.40
33863;DHT22;20158;51.436;-2.742;2024-01-30T12:14:16;15.00;64.30
33863;DHT22;20158;51.436;-2.742;2024-01-30T12:16:43;14.90;64.20
33863;DHT22;20158;51.436;-2.742;2024-01-30T12:19:10;14.90;64.20
33863;DHT22;20158;51.436;-2.742;2024-01-30T12:21:38;14.90;64.20
33863;DHT22;20158;51.436;-2.742;2024-01-30T12:24:05;14.90;64.20
33863;DHT22;20158;51.436;-2.742;2024-01-30T12:26:33;14.80;64.00
33863;DHT22;20158;51.436;-2.742;2024-01-30T12:29:00;14.80;64.10
33863;DHT22;20158;51.436;-2.742;2024-01-30T12:31:32;14.80;64.20
33863;DHT22;20158;51.436;-2.742;2024-01-30T12:34:02;14.80;64.20
33863;DHT22;20158;51.436;-2.742;2024-01-30T12:36:29;14.80;64.20
33863;DHT22;20158;51.436;-2.742;2024-01-30T12:38:57;14.80;64.20
33863;DHT22;20158;51.436;-2.742;2024-01-30T12:41:24;14.80;64.10
33863;DHT22;20158;51.436;-2.742;2024-01-30T12:43:54;14.80;64.10
33863;DHT22;20158;51.436;-2.742;2024-01-30T12:46:20;14.90;64.20
33863;DHT22;20158;51.436;-2.742;2024-01-30T12:48:47;14.90;64.10
33863;DHT22;20158;51.436;-2.742;2024-01-30T12:51:14;15.00;64.10
33863;DHT22;20158;51.436;-2.742;2024-01-30T12:53:40;15.00;63.90
33863;DHT22;20158;51.436;-2.742;2024-01-30T12:56:07;15.00;63.80
33863;DHT22;20158;51.436;-2.742;2024-01-30T12:58:34;15.10;63.90
33863;DHT22;20158;51.436;-2.742;2024-01-30T13:01:00;15.20;63.90
33863;DHT22;20158;51.436;-2.742;2024-01-30T13:03:29;15.20;63.70
33863;DHT22;20158;51.436;-2.742;2024-01-30T13:05:56;15.30;63.70
33863;DHT22;20158;51.436;-2.742;2024-01-30T13:08:23;15.30;63.60
33863;DHT22;20158;51.436;-2.742;2024-01-30T13:10:50;15.40;63.60
33863;DHT22;20158;51.436;-2.742;2024-01-30T13:13:17;15.40;63.50
33863;DHT22;20158;51.436;-2.742;2024-01-30T13:15:43;15.50;63.50
33863;DHT22;20158;51.436;-2.742;2024-01-30T13:18:10;15.50;63.40
33863;DHT22;20158;51.436;-2.742;2024-01-30T13:20:36;15.60;63.40
33863;DHT22;20158;51.436;-2.742;2024-01-30T13:23:05;15.60;63.30
33863;DHT22;20158;51.436;-2.742;2024-01-30T13:25:31;15.60;63.10
33863;DHT22;20158;51.436;-2.742;2024-01-30T13:27:57;15.60;63.00
33863;DHT22;20158;51.436;-2.742;2024-01-30T13:30:24;15.60;62.90
33863;DHT22;20158;51.436;-2.742;2024-01-30T13:32:50;15.60;62.80
33863;DHT22;20158;51.436;-2.742;2024-01-30T13:35:17;15.60;62.80
33863;DHT22;20158;51.436;-2.742;2024-01-30T13:37:55;15.60;62.80
33863;DHT22;20158;51.436;-2.742;2024-01-30T13:40:21;15.60;62.80
33863;DHT22;20158;51.436;-2.742;2024-01-30T13:42:48;15.70;62.90
33863;DHT22;20158;51.436;-2.742;2024-01-30T13:45:15;15.70;62.90
33863;DHT22;20158;51.436;-2.742;2024-01-30T13:47:42;15.70;62.80
33863;DHT22;20158;51.436;-2.742;2024-01-30T13:50:10;15.70;62.70
33863;DHT22;20158;51.436;-2.742;2024-01-30T13:52:41;15.70;62.60
33863;DHT22;20158;51.436;-2.742;2024-01-30T13:55:11;15.70;62.60
33863;DHT22;20158;51.436;-2.742;2024-01-30T13:57:38;15.70;62.50
33863;DHT22;20158;51.436;-2.742;2024-01-30T14:00:05;15.70;62.50
33863;DHT22;20158;51.436;-2.742;2024-01-30T14:02:39;15.70;62.50
33863;DHT22;20158;51.436;-2.742;2024-01-30T14:05:06;15.70;62.40
33863;DHT22;20158;51.436;-2.742;2024-01-30T14:07:33;15.80;62.60
33863;DHT22;20158;51.436;-2.742;2024-01-30T14:10:00;15.80;62.60
33863;DHT22;20158;51.436;-2.742;2024-01-30T14:12:27;15.90;62.70
33863;DHT22;20158;51.436;-2.742;2024-01-30T14:14:54;15.90;62.50
33863;DHT22;20158;51.436;-2.742;2024-01-30T14:17:24;16.00;62.60
33863;DHT22;20158;51.436;-2.742;2024-01-30T14:19:50;16.10;62.60
33863;DHT22;20158;51.436;-2.742;2024-01-30T14:22:17;16.20;62.70
33863;DHT22;20158;51.436;-2.742;2024-01-30T14:24:47;16.20;62.50
33863;DHT22;20158;51.436;-2.742;2024-01-30T14:27:17;16.20;62.30
33863;DHT22;20158;51.436;-2.742;2024-01-30T14:29:44;16.30;62.30
33863;DHT22;20158;51.436;-2.742;2024-01-30T14:32:11;16.30;62.30
33863;DHT22;20158;51.436;-2.742;2024-01-30T14:34:37;16.30;62.10
33863;DHT22;20158;51.436;-2.742;2024-01-30T14:37:05;16.30;62.10
33863;DHT22;20158;51.436;-2.742;2024-01-30T14:39:31;16.30;62.10
33863;DHT22;20158;51.436;-2.742;2024-01-30T14:41:59;16.30;62.00
33863;DHT22;20158;51.436;-2.742;2024-01-30T14:44:25;16.30;62.00
33863;DHT22;20158;51.436;-2.742;2024-01-30T14:46:52;16.30;62.00
33863;DHT22;20158;51.436;-2.742;2024-01-30T14:49:18;16.20;61.80
33863;DHT22;20158;51.436;-2.742;2024-01-30T14:51:45;16.20;61.80
33863;DHT22;20158;51.436;-2.742;2024-01-30T14:54:34;16.20;61.90
33863;DHT22;20158;51.436;-2.742;2024-01-30T14:57:21;16.20;61.90
33863;DHT22;20158;51.436;-2.742;2024-01-30T14:59:48;16.20;61.90
33863;DHT22;20158;51.436;-2.742;2024-01-30T15:02:17;16.20;61.90
33863;DHT22;20158;51.436;-2.742;2024-01-30T15:04:46;16.20;61.90
33863;DHT22;20158;51.436;-2.742;2024-01-30T15:07:13;16.20;61.80
33863;DHT22;20158;51.436;-2.742;2024-01-30T15:09:40;16.20;61.80
33863;DHT22;20158;51.436;-2.742;2024-01-30T15:12:06;16.20;61.70
33863;DHT22;20158;51.436;-2.742;2024-01-30T15:14:33;16.20;61.60
33863;DHT22;20158;51.436;-2.742;2024-01-30T15:16:59;16.20;61.60